Cotuit, MA (02635)

12:54 AM EDT on March 29, 2015 (GMT -0400)
HADS POPPONESSET BAY AT MASHPEE NECK MA US USGS | | Change Station
CLOSE
Current Station
Personal Weather Station
Location: Cotuit, MA
Elevation: 0 ft
Nearby Weather Stations

Elev 0 ft 41.60 °N, 70.47 °W | Updated 39 minutes ago

Snow
Snow
33 °F
Feels Like 33 °F
N
1
Wind Variable Wind from NNW
Gusts 0.0 mph

Today
High -- | Low -- °F
--% Chance of Precip.
Yesterday
High -- | Low -- °F
Precip. -- in
6:30 AM 7:03 PM
Waxing Gibbous, 68% visible
Pressure 30.01 in
Visibility 3.0 miles
Clouds Mostly Cloudy 600 ft
Mostly Cloudy 900 ft
Overcast 1600 ft
Windchill 33 °F
Dew Point 31 °F
Humidity 91%
Rainfall in
Snow Depth Not available.
UV 0 out of 12
Pollen 1.10 out of 12
Air Quality Not available.
Flu Activity Not available.
METAR KFMH 290435Z AUTO 35007G12KT 320V030 3SM -SN BKN006 BKN009 OVC016 00/M00 A3001 RMK AO2

More Conditions Fewer Conditions

Pressure 30.01 in
Visibility 3.0 miles
Clouds Mostly Cloudy 600 ft
Mostly Cloudy 900 ft
Overcast 1600 ft
Windchill 33 °F
Dew Point 31 °F
Humidity 91%
Rainfall in
Snow Depth Not available.
UV 0 out of 12
Pollen 1.10 out of 12
Air Quality Not available.
Flu Activity Not available.
METAR KFMH 290435Z AUTO 35007G12KT 320V030 3SM -SN BKN006 BKN009 OVC016 00/M00 A3001 RMK AO2

More Conditions Fewer Conditions

10-Day Weather Forecast

Almanac

Astronomy

Mar. 29, 2015 Rise Set
Actual Time
Civil Twilight
Nautical Twilight
Astronomical Twilight
Moon
Length of Visible Light
Length of Day
Tomorrow will be .
, % of the Moon is Illuminated

Today's Extremes

State Highs State Lows

Community

WunderPhotos

Upload Photos

1,809,186 photos uploaded!

WunderBlogs® & News

Nearby

Air Quality

  Air Quality AQ Index Pollutant
Not available.

Snow Depth

Station Depth Elevation

Earthquake Activity

City Distance Mag. Time & Date
Minimum magnitude displayed is 2.5.

Coastal Water Temperatures

Place Temperature

Stations

Nearby Weather Stations

Station Location Temp. Windchill Dew Point Humidity Wind Precip. Elev Updated Type